sensor_id;sensor_type;location;lat;lon;timestamp;P1;durP1;ratioP1;P2;durP2;ratioP2
53269;SDS011;39159;45.634;9.420;2024-01-07T00:00:25;71.55;;;35.85;;
53269;SDS011;39159;45.634;9.420;2024-01-07T00:02:51;83.95;;;38.33;;
53269;SDS011;39159;45.634;9.420;2024-01-07T00:05:16;69.03;;;34.78;;
53269;SDS011;39159;45.634;9.420;2024-01-07T00:07:41;67.35;;;35.47;;
53269;SDS011;39159;45.634;9.420;2024-01-07T00:10:07;126.50;;;41.13;;
53269;SDS011;39159;45.634;9.420;2024-01-07T00:12:33;69.10;;;36.58;;
53269;SDS011;39159;45.634;9.420;2024-01-07T00:15:00;82.60;;;38.03;;
53269;SDS011;39159;45.634;9.420;2024-01-07T00:17:25;73.50;;;34.60;;
53269;SDS011;39159;45.634;9.420;2024-01-07T00:19:51;109.28;;;40.05;;
53269;SDS011;39159;45.634;9.420;2024-01-07T00:22:16;134.65;;;40.50;;
53269;SDS011;39159;45.634;9.420;2024-01-07T00:24:42;83.35;;;42.53;;
53269;SDS011;39159;45.634;9.420;2024-01-07T00:27:08;75.18;;;37.08;;
53269;SDS011;39159;45.634;9.420;2024-01-07T00:29:36;71.68;;;37.15;;
53269;SDS011;39159;45.634;9.420;2024-01-07T00:32:02;85.05;;;39.08;;
53269;SDS011;39159;45.634;9.420;2024-01-07T00:34:27;71.65;;;36.78;;
53269;SDS011;39159;45.634;9.420;2024-01-07T00:36:53;72.63;;;37.90;;
53269;SDS011;39159;45.634;9.420;2024-01-07T00:39:18;73.72;;;37.67;;
53269;SDS011;39159;45.634;9.420;2024-01-07T00:41:43;68.85;;;35.38;;
53269;SDS011;39159;45.634;9.420;2024-01-07T00:44:09;79.75;;;38.92;;
53269;SDS011;39159;45.634;9.420;2024-01-07T00:46:34;69.68;;;37.42;;
53269;SDS011;39159;45.634;9.420;2024-01-07T00:48:59;100.32;;;39.30;;
53269;SDS011;39159;45.634;9.420;2024-01-07T00:51:25;79.45;;;37.65;;
53269;SDS011;39159;45.634;9.420;2024-01-07T00:53:50;68.38;;;34.85;;
53269;SDS011;39159;45.634;9.420;2024-01-07T00:56:15;84.72;;;39.67;;
53269;SDS011;39159;45.634;9.420;2024-01-07T00:58:41;83.47;;;38.22;;
53269;SDS011;39159;45.634;9.420;2024-01-07T01:01:06;66.90;;;33.85;;
53269;SDS011;39159;45.634;9.420;2024-01-07T01:03:32;67.70;;;35.90;;
53269;SDS011;39159;45.634;9.420;2024-01-07T01:05:58;68.88;;;34.10;;
53269;SDS011;39159;45.634;9.420;2024-01-07T01:08:23;69.38;;;35.35;;
53269;SDS011;39159;45.634;9.420;2024-01-07T01:10:49;70.90;;;34.13;;
53269;SDS011;39159;45.634;9.420;2024-01-07T01:13:14;70.13;;;34.90;;
53269;SDS011;39159;45.634;9.420;2024-01-07T01:15:39;67.18;;;31.90;;
53269;SDS011;39159;45.634;9.420;2024-01-07T01:18:05;65.88;;;34.00;;
53269;SDS011;39159;45.634;9.420;2024-01-07T01:20:30;79.80;;;36.53;;
53269;SDS011;39159;45.634;9.420;2024-01-07T01:22:56;70.25;;;35.55;;
53269;SDS011;39159;45.634;9.420;2024-01-07T01:25:21;121.30;;;40.30;;
53269;SDS011;39159;45.634;9.420;2024-01-07T01:27:47;83.82;;;34.45;;
53269;SDS011;39159;45.634;9.420;2024-01-07T01:30:12;86.55;;;36.03;;
53269;SDS011;39159;45.634;9.420;2024-01-07T01:32:38;71.38;;;35.88;;
53269;SDS011;39159;45.634;9.420;2024-01-07T01:35:04;91.72;;;33.78;;
53269;SDS011;39159;45.634;9.420;2024-01-07T01:37:30;67.47;;;32.17;;
53269;SDS011;39159;45.634;9.420;2024-01-07T01:39:57;82.93;;;32.20;;
53269;SDS011;39159;45.634;9.420;2024-01-07T01:42:23;82.60;;;32.33;;
53269;SDS011;39159;45.634;9.420;2024-01-07T01:44:49;65.85;;;31.45;;
53269;SDS011;39159;45.634;9.420;2024-01-07T01:47:14;67.25;;;32.50;;
53269;SDS011;39159;45.634;9.420;2024-01-07T01:49:40;62.47;;;30.52;;
53269;SDS011;39159;45.634;9.420;2024-01-07T01:52:05;63.80;;;30.63;;
53269;SDS011;39159;45.634;9.420;2024-01-07T01:54:31;61.42;;;30.00;;
53269;SDS011;39159;45.634;9.420;2024-01-07T01:56:57;60.60;;;30.55;;
53269;SDS011;39159;45.634;9.420;2024-01-07T01:59:22;61.85;;;29.98;;
53269;SDS011;39159;45.634;9.420;2024-01-07T02:01:48;55.58;;;28.85;;
53269;SDS011;39159;45.634;9.420;2024-01-07T02:04:14;60.25;;;30.75;;
53269;SDS011;39159;45.634;9.420;2024-01-07T02:06:40;54.58;;;28.67;;
53269;SDS011;39159;45.634;9.420;2024-01-07T02:09:06;60.08;;;29.73;;
53269;SDS011;39159;45.634;9.420;2024-01-07T02:11:31;70.55;;;32.60;;
53269;SDS011;39159;45.634;9.420;2024-01-07T02:13:56;66.00;;;31.52;;
53269;SDS011;39159;45.634;9.420;2024-01-07T02:16:22;76.85;;;32.60;;
53269;SDS011;39159;45.634;9.420;2024-01-07T02:18:47;71.72;;;33.00;;
53269;SDS011;39159;45.634;9.420;2024-01-07T02:21:13;85.30;;;34.50;;
53269;SDS011;39159;45.634;9.420;2024-01-07T02:23:39;68.15;;;33.70;;
53269;SDS011;39159;45.634;9.420;2024-01-07T02:26:04;57.78;;;29.85;;
53269;SDS011;39159;45.634;9.420;2024-01-07T02:28:31;96.07;;;36.00;;
53269;SDS011;39159;45.634;9.420;2024-01-07T02:30:57;130.43;;;39.95;;
53269;SDS011;39159;45.634;9.420;2024-01-07T02:33:22;77.65;;;37.03;;
53269;SDS011;39159;45.634;9.420;2024-01-07T02:35:47;81.78;;;37.08;;
53269;SDS011;39159;45.634;9.420;2024-01-07T02:38:13;69.50;;;34.10;;
53269;SDS011;39159;45.634;9.420;2024-01-07T02:40:38;79.78;;;36.30;;
53269;SDS011;39159;45.634;9.420;2024-01-07T02:43:04;95.20;;;36.80;;
53269;SDS011;39159;45.634;9.420;2024-01-07T02:45:29;85.53;;;36.50;;
53269;SDS011;39159;45.634;9.420;2024-01-07T02:47:54;106.88;;;37.25;;
53269;SDS011;39159;45.634;9.420;2024-01-07T02:50:20;72.88;;;36.20;;
53269;SDS011;39159;45.634;9.420;2024-01-07T02:52:45;82.13;;;37.30;;
53269;SDS011;39159;45.634;9.420;2024-01-07T02:55:11;76.85;;;36.28;;
53269;SDS011;39159;45.634;9.420;2024-01-07T02:57:36;80.75;;;37.22;;
53269;SDS011;39159;45.634;9.420;2024-01-07T03:00:02;70.38;;;36.65;;
53269;SDS011;39159;45.634;9.420;2024-01-07T03:02:29;73.53;;;36.33;;
53269;SDS011;39159;45.634;9.420;2024-01-07T03:04:55;65.03;;;33.95;;
53269;SDS011;39159;45.634;9.420;2024-01-07T03:07:20;73.07;;;37.00;;
53269;SDS011;39159;45.634;9.420;2024-01-07T03:09:45;74.32;;;37.72;;
53269;SDS011;39159;45.634;9.420;2024-01-07T03:12:11;63.25;;;33.83;;
53269;SDS011;39159;45.634;9.420;2024-01-07T03:14:36;60.63;;;32.55;;
53269;SDS011;39159;45.634;9.420;2024-01-07T03:17:02;72.15;;;35.88;;
53269;SDS011;39159;45.634;9.420;2024-01-07T03:19:27;68.18;;;35.65;;
53269;SDS011;39159;45.634;9.420;2024-01-07T03:21:52;57.67;;;32.10;;
53269;SDS011;39159;45.634;9.420;2024-01-07T03:24:18;62.25;;;33.00;;
53269;SDS011;39159;45.634;9.420;2024-01-07T03:26:43;61.28;;;33.78;;
53269;SDS011;39159;45.634;9.420;2024-01-07T03:29:09;59.50;;;32.97;;
53269;SDS011;39159;45.634;9.420;2024-01-07T03:31:34;59.85;;;32.67;;
53269;SDS011;39159;45.634;9.420;2024-01-07T03:33:59;60.88;;;33.25;;
53269;SDS011;39159;45.634;9.420;2024-01-07T03:36:25;55.95;;;32.05;;
53269;SDS011;39159;45.634;9.420;2024-01-07T03:38:50;64.18;;;34.35;;
53269;SDS011;39159;45.634;9.420;2024-01-07T03:41:16;55.30;;;31.42;;
53269;SDS011;39159;45.634;9.420;2024-01-07T03:43:43;58.08;;;33.00;;
53269;SDS011;39159;45.634;9.420;2024-01-07T03:46:09;67.18;;;35.05;;
53269;SDS011;39159;45.634;9.420;2024-01-07T03:48:34;67.70;;;35.13;;
53269;SDS011;39159;45.634;9.420;2024-01-07T03:50:59;68.60;;;36.17;;
53269;SDS011;39159;45.634;9.420;2024-01-07T03:53:25;57.22;;;32.58;;
53269;SDS011;39159;45.634;9.420;2024-01-07T03:55:50;59.55;;;32.92;;
53269;SDS011;39159;45.634;9.420;2024-01-07T03:58:15;58.42;;;32.63;;
53269;SDS011;39159;45.634;9.420;2024-01-07T04:00:41;55.72;;;33.28;;
53269;SDS011;39159;45.634;9.420;2024-01-07T04:03:06;55.38;;;31.77;;
53269;SDS011;39159;45.634;9.420;2024-01-07T04:05:32;63.70;;;33.00;;
53269;SDS011;39159;45.634;9.420;2024-01-07T04:07:59;58.17;;;32.40;;
53269;SDS011;39159;45.634;9.420;2024-01-07T04:10:26;55.67;;;31.10;;
53269;SDS011;39159;45.634;9.420;2024-01-07T04:12:51;109.43;;;36.33;;
53269;SDS011;39159;45.634;9.420;2024-01-07T04:15:16;66.93;;;33.65;;
53269;SDS011;39159;45.634;9.420;2024-01-07T04:17:42;66.15;;;32.30;;
53269;SDS011;39159;45.634;9.420;2024-01-07T04:20:07;157.65;;;40.33;;
53269;SDS011;39159;45.634;9.420;2024-01-07T04:22:33;59.42;;;32.03;;
53269;SDS011;39159;45.634;9.420;2024-01-07T04:24:59;73.32;;;32.40;;
53269;SDS011;39159;45.634;9.420;2024-01-07T04:27:24;80.80;;;34.67;;
53269;SDS011;39159;45.634;9.420;2024-01-07T04:29:52;124.90;;;33.55;;
53269;SDS011;39159;45.634;9.420;2024-01-07T04:32:17;79.25;;;34.35;;
53269;SDS011;39159;45.634;9.420;2024-01-07T04:34:43;122.28;;;35.72;;
53269;SDS011;39159;45.634;9.420;2024-01-07T04:37:08;64.70;;;32.78;;
53269;SDS011;39159;45.634;9.420;2024-01-07T04:39:34;132.73;;;36.53;;
53269;SDS011;39159;45.634;9.420;2024-01-07T04:41:59;80.57;;;32.72;;
53269;SDS011;39159;45.634;9.420;2024-01-07T04:44:24;73.38;;;31.73;;
53269;SDS011;39159;45.634;9.420;2024-01-07T04:46:50;197.00;;;37.50;;
53269;SDS011;39159;45.634;9.420;2024-01-07T04:49:15;69.57;;;33.78;;
53269;SDS011;39159;45.634;9.420;2024-01-07T04:51:41;122.43;;;36.65;;
53269;SDS011;39159;45.634;9.420;2024-01-07T04:54:06;69.00;;;34.75;;
53269;SDS011;39159;45.634;9.420;2024-01-07T04:56:32;102.30;;;34.65;;
53269;SDS011;39159;45.634;9.420;2024-01-07T04:58:57;128.50;;;34.75;;
53269;SDS011;39159;45.634;9.420;2024-01-07T05:01:23;137.88;;;38.72;;
53269;SDS011;39159;45.634;9.420;2024-01-07T05:03:48;69.68;;;33.08;;
53269;SDS011;39159;45.634;9.420;2024-01-07T05:06:14;68.88;;;33.53;;
53269;SDS011;39159;45.634;9.420;2024-01-07T05:08:40;114.20;;;35.33;;
53269;SDS011;39159;45.634;9.420;2024-01-07T05:11:06;130.90;;;38.03;;
53269;SDS011;39159;45.634;9.420;2024-01-07T05:13:31;92.28;;;34.38;;
53269;SDS011;39159;45.634;9.420;2024-01-07T05:15:57;61.47;;;32.72;;
53269;SDS011;39159;45.634;9.420;2024-01-07T05:18:23;65.95;;;31.83;;
53269;SDS011;39159;45.634;9.420;2024-01-07T05:20:49;111.05;;;34.15;;
53269;SDS011;39159;45.634;9.420;2024-01-07T05:23:15;106.90;;;35.42;;
53269;SDS011;39159;45.634;9.420;2024-01-07T05:25:44;83.35;;;34.65;;
53269;SDS011;39159;45.634;9.420;2024-01-07T05:28:10;64.93;;;31.77;;
53269;SDS011;39159;45.634;9.420;2024-01-07T05:30:36;67.35;;;32.55;;
53269;SDS011;39159;45.634;9.420;2024-01-07T05:33:03;72.68;;;34.40;;
53269;SDS011;39159;45.634;9.420;2024-01-07T05:35:28;73.95;;;33.42;;
53269;SDS011;39159;45.634;9.420;2024-01-07T05:37:53;63.15;;;32.70;;
53269;SDS011;39159;45.634;9.420;2024-01-07T05:40:19;62.63;;;33.05;;
53269;SDS011;39159;45.634;9.420;2024-01-07T05:42:44;82.88;;;34.05;;
53269;SDS011;39159;45.634;9.420;2024-01-07T05:45:09;75.20;;;33.85;;
53269;SDS011;39159;45.634;9.420;2024-01-07T05:47:35;69.45;;;33.53;;
53269;SDS011;39159;45.634;9.420;2024-01-07T05:50:00;86.38;;;35.63;;
53269;SDS011;39159;45.634;9.420;2024-01-07T05:52:27;81.35;;;35.20;;
53269;SDS011;39159;45.634;9.420;2024-01-07T05:54:52;95.07;;;38.20;;
53269;SDS011;39159;45.634;9.420;2024-01-07T05:57:18;68.53;;;34.53;;
53269;SDS011;39159;45.634;9.420;2024-01-07T05:59:43;58.08;;;31.65;;
53269;SDS011;39159;45.634;9.420;2024-01-07T06:02:09;58.03;;;31.48;;
53269;SDS011;39159;45.634;9.420;2024-01-07T06:04:34;58.85;;;31.60;;
53269;SDS011;39159;45.634;9.420;2024-01-07T06:07:02;60.95;;;31.85;;
53269;SDS011;39159;45.634;9.420;2024-01-07T06:09:27;58.08;;;30.98;;
53269;SDS011;39159;45.634;9.420;2024-01-07T06:11:53;71.78;;;32.53;;
53269;SDS011;39159;45.634;9.420;2024-01-07T06:14:18;70.40;;;33.35;;
53269;SDS011;39159;45.634;9.420;2024-01-07T06:16:43;58.47;;;31.55;;
53269;SDS011;39159;45.634;9.420;2024-01-07T06:19:09;59.22;;;30.63;;
53269;SDS011;39159;45.634;9.420;2024-01-07T06:21:34;63.17;;;33.17;;
53269;SDS011;39159;45.634;9.420;2024-01-07T06:23:59;71.15;;;33.67;;
53269;SDS011;39159;45.634;9.420;2024-01-07T06:26:25;69.28;;;31.92;;
53269;SDS011;39159;45.634;9.420;2024-01-07T06:28:51;72.38;;;33.95;;
53269;SDS011;39159;45.634;9.420;2024-01-07T06:31:16;59.97;;;31.25;;
53269;SDS011;39159;45.634;9.420;2024-01-07T06:33:41;64.53;;;31.45;;
53269;SDS011;39159;45.634;9.420;2024-01-07T06:36:07;88.60;;;34.22;;
53269;SDS011;39159;45.634;9.420;2024-01-07T06:38:33;68.07;;;33.83;;
53269;SDS011;39159;45.634;9.420;2024-01-07T06:40:59;76.32;;;34.08;;
53269;SDS011;39159;45.634;9.420;2024-01-07T06:43:29;56.22;;;30.73;;
53269;SDS011;39159;45.634;9.420;2024-01-07T06:45:55;62.38;;;31.08;;
53269;SDS011;39159;45.634;9.420;2024-01-07T06:48:20;73.50;;;33.03;;
53269;SDS011;39159;45.634;9.420;2024-01-07T06:50:46;63.20;;;32.83;;
53269;SDS011;39159;45.634;9.420;2024-01-07T06:53:11;59.75;;;32.28;;
53269;SDS011;39159;45.634;9.420;2024-01-07T06:55:36;52.85;;;30.30;;
53269;SDS011;39159;45.634;9.420;2024-01-07T06:58:02;55.05;;;30.45;;
53269;SDS011;39159;45.634;9.420;2024-01-07T07:00:28;55.03;;;31.17;;
53269;SDS011;39159;45.634;9.420;2024-01-07T07:02:53;56.38;;;31.88;;
53269;SDS011;39159;45.634;9.420;2024-01-07T07:05:18;65.72;;;34.38;;
53269;SDS011;39159;45.634;9.420;2024-01-07T07:07:44;57.92;;;32.60;;
53269;SDS011;39159;45.634;9.420;2024-01-07T07:10:10;56.70;;;30.90;;
53269;SDS011;39159;45.634;9.420;2024-01-07T07:12:35;57.25;;;30.63;;
53269;SDS011;39159;45.634;9.420;2024-01-07T07:15:01;60.13;;;31.83;;
53269;SDS011;39159;45.634;9.420;2024-01-07T07:17:26;53.58;;;28.52;;
53269;SDS011;39159;45.634;9.420;2024-01-07T07:19:51;54.80;;;30.35;;
53269;SDS011;39159;45.634;9.420;2024-01-07T07:22:17;46.22;;;28.58;;
53269;SDS011;39159;45.634;9.420;2024-01-07T07:24:42;51.63;;;29.80;;
53269;SDS011;39159;45.634;9.420;2024-01-07T07:27:08;48.15;;;28.35;;
53269;SDS011;39159;45.634;9.420;2024-01-07T07:29:33;49.97;;;27.58;;
53269;SDS011;39159;45.634;9.420;2024-01-07T07:31:59;51.35;;;29.38;;
53269;SDS011;39159;45.634;9.420;2024-01-07T07:34:24;42.65;;;25.10;;
53269;SDS011;39159;45.634;9.420;2024-01-07T07:36:49;51.17;;;30.50;;
53269;SDS011;39159;45.634;9.420;2024-01-07T07:39:15;50.22;;;28.63;;
53269;SDS011;39159;45.634;9.420;2024-01-07T07:41:40;48.40;;;27.33;;
53269;SDS011;39159;45.634;9.420;2024-01-07T07:44:06;48.22;;;27.70;;
53269;SDS011;39159;45.634;9.420;2024-01-07T07:46:32;48.08;;;28.17;;
53269;SDS011;39159;45.634;9.420;2024-01-07T07:48:57;45.63;;;26.98;;
53269;SDS011;39159;45.634;9.420;2024-01-07T07:51:22;49.55;;;29.50;;
53269;SDS011;39159;45.634;9.420;2024-01-07T07:53:48;42.00;;;25.35;;
53269;SDS011;39159;45.634;9.420;2024-01-07T07:56:13;46.13;;;28.20;;
53269;SDS011;39159;45.634;9.420;2024-01-07T07:58:39;43.40;;;25.52;;
53269;SDS011;39159;45.634;9.420;2024-01-07T08:01:04;46.38;;;27.70;;
53269;SDS011;39159;45.634;9.420;2024-01-07T08:03:30;43.92;;;27.92;;
53269;SDS011;39159;45.634;9.420;2024-01-07T08:05:56;47.67;;;27.48;;
53269;SDS011;39159;45.634;9.420;2024-01-07T08:08:22;47.13;;;27.88;;
53269;SDS011;39159;45.634;9.420;2024-01-07T08:10:47;47.00;;;28.55;;
53269;SDS011;39159;45.634;9.420;2024-01-07T08:13:13;41.80;;;26.70;;
53269;SDS011;39159;45.634;9.420;2024-01-07T08:15:38;48.88;;;29.08;;
53269;SDS011;39159;45.634;9.420;2024-01-07T08:18:04;47.78;;;28.08;;
53269;SDS011;39159;45.634;9.420;2024-01-07T08:20:30;45.35;;;28.15;;
53269;SDS011;39159;45.634;9.420;2024-01-07T08:22:55;40.90;;;25.83;;
53269;SDS011;39159;45.634;9.420;2024-01-07T08:25:21;40.45;;;24.95;;
53269;SDS011;39159;45.634;9.420;2024-01-07T08:27:47;42.95;;;26.08;;
53269;SDS011;39159;45.634;9.420;2024-01-07T08:30:13;41.35;;;25.65;;
53269;SDS011;39159;45.634;9.420;2024-01-07T08:32:39;39.30;;;24.85;;
53269;SDS011;39159;45.634;9.420;2024-01-07T08:35:04;40.63;;;23.98;;
53269;SDS011;39159;45.634;9.420;2024-01-07T08:37:30;36.72;;;22.48;;
53269;SDS011;39159;45.634;9.420;2024-01-07T08:39:56;36.95;;;21.27;;
53269;SDS011;39159;45.634;9.420;2024-01-07T08:42:21;42.88;;;23.70;;
53269;SDS011;39159;45.634;9.420;2024-01-07T08:44:47;37.38;;;21.08;;
53269;SDS011;39159;45.634;9.420;2024-01-07T08:47:12;35.55;;;21.52;;
53269;SDS011;39159;45.634;9.420;2024-01-07T08:49:38;36.00;;;20.35;;
53269;SDS011;39159;45.634;9.420;2024-01-07T08:52:04;34.55;;;21.83;;
53269;SDS011;39159;45.634;9.420;2024-01-07T08:54:29;32.38;;;20.60;;
53269;SDS011;39159;45.634;9.420;2024-01-07T08:56:55;32.22;;;19.77;;
53269;SDS011;39159;45.634;9.420;2024-01-07T08:59:20;33.20;;;20.15;;
53269;SDS011;39159;45.634;9.420;2024-01-07T09:01:45;31.20;;;19.08;;
53269;SDS011;39159;45.634;9.420;2024-01-07T09:04:11;33.45;;;20.88;;
53269;SDS011;39159;45.634;9.420;2024-01-07T09:06:37;35.28;;;21.30;;
53269;SDS011;39159;45.634;9.420;2024-01-07T09:09:02;34.45;;;21.30;;
53269;SDS011;39159;45.634;9.420;2024-01-07T09:11:31;32.33;;;20.60;;
53269;SDS011;39159;45.634;9.420;2024-01-07T09:13:56;38.60;;;21.67;;
53269;SDS011;39159;45.634;9.420;2024-01-07T09:16:22;35.22;;;21.33;;
53269;SDS011;39159;45.634;9.420;2024-01-07T09:18:47;35.17;;;21.77;;
53269;SDS011;39159;45.634;9.420;2024-01-07T09:21:13;35.03;;;21.05;;
53269;SDS011;39159;45.634;9.420;2024-01-07T09:23:39;34.80;;;22.33;;
53269;SDS011;39159;45.634;9.420;2024-01-07T09:26:04;37.25;;;22.05;;
53269;SDS011;39159;45.634;9.420;2024-01-07T09:28:30;33.65;;;21.27;;
53269;SDS011;39159;45.634;9.420;2024-01-07T09:30:55;35.28;;;21.85;;
53269;SDS011;39159;45.634;9.420;2024-01-07T09:33:20;34.42;;;22.10;;
53269;SDS011;39159;45.634;9.420;2024-01-07T09:35:48;35.22;;;19.85;;
53269;SDS011;39159;45.634;9.420;2024-01-07T09:38:14;32.20;;;20.58;;
53269;SDS011;39159;45.634;9.420;2024-01-07T09:40:40;34.60;;;20.75;;
53269;SDS011;39159;45.634;9.420;2024-01-07T09:43:06;32.67;;;20.70;;
53269;SDS011;39159;45.634;9.420;2024-01-07T09:45:31;34.05;;;21.63;;
53269;SDS011;39159;45.634;9.420;2024-01-07T09:47:57;33.90;;;21.80;;
53269;SDS011;39159;45.634;9.420;2024-01-07T09:50:23;35.47;;;22.50;;
53269;SDS011;39159;45.634;9.420;2024-01-07T09:52:48;34.85;;;21.35;;
53269;SDS011;39159;45.634;9.420;2024-01-07T09:56:01;34.75;;;21.48;;
53269;SDS011;39159;45.634;9.420;2024-01-07T09:58:12;33.83;;;21.13;;
53269;SDS011;39159;45.634;9.420;2024-01-07T10:00:38;35.85;;;22.67;;
53269;SDS011;39159;45.634;9.420;2024-01-07T10:03:05;41.17;;;23.88;;
53269;SDS011;39159;45.634;9.420;2024-01-07T10:05:30;41.42;;;24.85;;
53269;SDS011;39159;45.634;9.420;2024-01-07T10:07:55;40.00;;;22.88;;
53269;SDS011;39159;45.634;9.420;2024-01-07T10:10:22;36.92;;;23.33;;
53269;SDS011;39159;45.634;9.420;2024-01-07T10:12:48;38.05;;;22.75;;
53269;SDS011;39159;45.634;9.420;2024-01-07T10:15:13;41.05;;;23.48;;
53269;SDS011;39159;45.634;9.420;2024-01-07T10:17:40;41.83;;;22.83;;
53269;SDS011;39159;45.634;9.420;2024-01-07T10:20:07;40.63;;;24.02;;
53269;SDS011;39159;45.634;9.420;2024-01-07T10:22:35;41.42;;;24.45;;
53269;SDS011;39159;45.634;9.420;2024-01-07T10:25:01;40.25;;;23.88;;
53269;SDS011;39159;45.634;9.420;2024-01-07T10:27:26;40.08;;;22.75;;
53269;SDS011;39159;45.634;9.420;2024-01-07T10:29:52;40.08;;;25.42;;
53269;SDS011;39159;45.634;9.420;2024-01-07T10:32:20;40.85;;;24.38;;
53269;SDS011;39159;45.634;9.420;2024-01-07T10:34:46;45.10;;;25.15;;
53269;SDS011;39159;45.634;9.420;2024-01-07T10:37:12;44.05;;;25.73;;
53269;SDS011;39159;45.634;9.420;2024-01-07T10:39:38;42.97;;;24.90;;
53269;SDS011;39159;45.634;9.420;2024-01-07T10:42:03;42.30;;;24.98;;
53269;SDS011;39159;45.634;9.420;2024-01-07T10:44:30;39.35;;;23.60;;
53269;SDS011;39159;45.634;9.420;2024-01-07T10:46:56;39.40;;;23.38;;
53269;SDS011;39159;45.634;9.420;2024-01-07T10:49:23;39.50;;;24.13;;
53269;SDS011;39159;45.634;9.420;2024-01-07T10:52:05;40.63;;;24.13;;
53269;SDS011;39159;45.634;9.420;2024-01-07T10:54:32;38.20;;;23.05;;
53269;SDS011;39159;45.634;9.420;2024-01-07T10:56:59;41.55;;;25.23;;
53269;SDS011;39159;45.634;9.420;2024-01-07T10:59:29;44.88;;;26.33;;
53269;SDS011;39159;45.634;9.420;2024-01-07T11:01:58;40.67;;;25.58;;
53269;SDS011;39159;45.634;9.420;2024-01-07T11:04:26;42.35;;;26.08;;
53269;SDS011;39159;45.634;9.420;2024-01-07T11:07:09;42.70;;;25.30;;
53269;SDS011;39159;45.634;9.420;2024-01-07T11:09:54;42.78;;;25.02;;
53269;SDS011;39159;45.634;9.420;2024-01-07T11:12:29;43.50;;;25.58;;
53269;SDS011;39159;45.634;9.420;2024-01-07T11:14:56;51.85;;;29.08;;
53269;SDS011;39159;45.634;9.420;2024-01-07T11:20:01;43.42;;;26.83;;
53269;SDS011;39159;45.634;9.420;2024-01-07T11:22:28;42.50;;;25.85;;
53269;SDS011;39159;45.634;9.420;2024-01-07T11:24:54;42.13;;;25.50;;
53269;SDS011;39159;45.634;9.420;2024-01-07T11:27:23;39.08;;;23.52;;
53269;SDS011;39159;45.634;9.420;2024-01-07T11:29:53;43.83;;;25.58;;
53269;SDS011;39159;45.634;9.420;2024-01-07T11:32:22;43.38;;;25.52;;
53269;SDS011;39159;45.634;9.420;2024-01-07T11:34:50;41.53;;;25.27;;
53269;SDS011;39159;45.634;9.420;2024-01-07T11:37:18;39.30;;;23.88;;
53269;SDS011;39159;45.634;9.420;2024-01-07T11:39:47;43.15;;;25.02;;
53269;SDS011;39159;45.634;9.420;2024-01-07T11:42:14;43.10;;;25.40;;
53269;SDS011;39159;45.634;9.420;2024-01-07T11:44:51;45.45;;;25.45;;
53269;SDS011;39159;45.634;9.420;2024-01-07T11:47:18;42.30;;;24.00;;
53269;SDS011;39159;45.634;9.420;2024-01-07T11:49:45;40.13;;;23.92;;
53269;SDS011;39159;45.634;9.420;2024-01-07T11:52:10;39.88;;;24.27;;
53269;SDS011;39159;45.634;9.420;2024-01-07T11:54:39;40.15;;;23.05;;
53269;SDS011;39159;45.634;9.420;2024-01-07T11:57:05;39.28;;;23.50;;
53269;SDS011;39159;45.634;9.420;2024-01-07T11:59:31;37.45;;;23.02;;
53269;SDS011;39159;45.634;9.420;2024-01-07T12:01:57;39.20;;;25.70;;
53269;SDS011;39159;45.634;9.420;2024-01-07T12:04:23;38.28;;;22.23;;
53269;SDS011;39159;45.634;9.420;2024-01-07T12:06:49;38.50;;;22.85;;
53269;SDS011;39159;45.634;9.420;2024-01-07T12:09:15;38.25;;;21.80;;
53269;SDS011;39159;45.634;9.420;2024-01-07T12:11:41;38.78;;;21.92;;
53269;SDS011;39159;45.634;9.420;2024-01-07T12:14:07;35.60;;;21.40;;
53269;SDS011;39159;45.634;9.420;2024-01-07T12:16:34;37.70;;;22.70;;
53269;SDS011;39159;45.634;9.420;2024-01-07T12:19:00;33.30;;;21.33;;
53269;SDS011;39159;45.634;9.420;2024-01-07T12:21:26;35.03;;;21.55;;
53269;SDS011;39159;45.634;9.420;2024-01-07T12:23:53;34.90;;;22.27;;
53269;SDS011;39159;45.634;9.420;2024-01-07T12:26:19;32.67;;;20.23;;
53269;SDS011;39159;45.634;9.420;2024-01-07T12:28:45;33.72;;;20.83;;
53269;SDS011;39159;45.634;9.420;2024-01-07T12:31:17;42.28;;;24.75;;
53269;SDS011;39159;45.634;9.420;2024-01-07T12:33:43;36.20;;;22.63;;
53269;SDS011;39159;45.634;9.420;2024-01-07T12:36:08;33.28;;;22.27;;
53269;SDS011;39159;45.634;9.420;2024-01-07T12:38:37;36.92;;;21.85;;
53269;SDS011;39159;45.634;9.420;2024-01-07T12:41:06;33.78;;;20.42;;
53269;SDS011;39159;45.634;9.420;2024-01-07T12:43:31;38.67;;;22.33;;
53269;SDS011;39159;45.634;9.420;2024-01-07T12:45:57;34.85;;;20.52;;
53269;SDS011;39159;45.634;9.420;2024-01-07T12:48:26;33.13;;;20.30;;
53269;SDS011;39159;45.634;9.420;2024-01-07T12:50:51;32.03;;;19.65;;
53269;SDS011;39159;45.634;9.420;2024-01-07T12:53:17;36.38;;;22.27;;
53269;SDS011;39159;45.634;9.420;2024-01-07T12:55:43;40.22;;;23.02;;
53269;SDS011;39159;45.634;9.420;2024-01-07T12:58:08;32.30;;;20.13;;
53269;SDS011;39159;45.634;9.420;2024-01-07T13:00:34;33.05;;;20.35;;
53269;SDS011;39159;45.634;9.420;2024-01-07T13:03:00;31.90;;;20.67;;
53269;SDS011;39159;45.634;9.420;2024-01-07T13:05:25;37.95;;;21.45;;
53269;SDS011;39159;45.634;9.420;2024-01-07T13:07:51;37.78;;;22.00;;
53269;SDS011;39159;45.634;9.420;2024-01-07T13:10:16;35.15;;;22.08;;
53269;SDS011;39159;45.634;9.420;2024-01-07T13:12:42;36.25;;;21.75;;
53269;SDS011;39159;45.634;9.420;2024-01-07T13:15:07;35.92;;;22.33;;
53269;SDS011;39159;45.634;9.420;2024-01-07T13:17:33;33.95;;;21.05;;
53269;SDS011;39159;45.634;9.420;2024-01-07T13:19:59;37.70;;;22.60;;
53269;SDS011;39159;45.634;9.420;2024-01-07T13:22:25;34.25;;;20.70;;
53269;SDS011;39159;45.634;9.420;2024-01-07T13:24:50;33.20;;;21.52;;
53269;SDS011;39159;45.634;9.420;2024-01-07T13:27:15;37.13;;;22.17;;
53269;SDS011;39159;45.634;9.420;2024-01-07T13:29:43;33.80;;;21.00;;
53269;SDS011;39159;45.634;9.420;2024-01-07T13:32:12;32.80;;;19.95;;
53269;SDS011;39159;45.634;9.420;2024-01-07T13:34:42;35.50;;;20.38;;
53269;SDS011;39159;45.634;9.420;2024-01-07T13:37:08;35.28;;;21.02;;
53269;SDS011;39159;45.634;9.420;2024-01-07T13:39:33;34.90;;;20.90;;
53269;SDS011;39159;45.634;9.420;2024-01-07T13:41:58;35.75;;;20.90;;
53269;SDS011;39159;45.634;9.420;2024-01-07T13:44:24;34.72;;;20.50;;
53269;SDS011;39159;45.634;9.420;2024-01-07T13:46:49;36.33;;;20.35;;
53269;SDS011;39159;45.634;9.420;2024-01-07T13:49:17;34.33;;;20.80;;
53269;SDS011;39159;45.634;9.420;2024-01-07T13:51:42;36.58;;;21.13;;
53269;SDS011;39159;45.634;9.420;2024-01-07T13:54:09;36.25;;;20.75;;
53269;SDS011;39159;45.634;9.420;2024-01-07T13:56:40;33.25;;;20.63;;
53269;SDS011;39159;45.634;9.420;2024-01-07T13:59:07;30.23;;;19.20;;
53269;SDS011;39159;45.634;9.420;2024-01-07T14:01:33;36.70;;;21.67;;
53269;SDS011;39159;45.634;9.420;2024-01-07T14:03:59;55.13;;;31.48;;
53269;SDS011;39159;45.634;9.420;2024-01-07T14:06:24;44.92;;;27.10;;
53269;SDS011;39159;45.634;9.420;2024-01-07T14:08:50;40.85;;;23.92;;
53269;SDS011;39159;45.634;9.420;2024-01-07T14:11:17;37.03;;;22.23;;
53269;SDS011;39159;45.634;9.420;2024-01-07T14:13:43;34.85;;;22.13;;
53269;SDS011;39159;45.634;9.420;2024-01-07T14:16:10;33.10;;;21.15;;